createdAt,value
2022-11-03T00:01:52.061Z,11.00
2022-11-03T00:04:22.954Z,10.90
2022-11-03T00:06:53.128Z,10.90
2022-11-03T00:09:23.357Z,10.90
2022-11-03T00:11:52.903Z,10.90
2022-11-03T00:14:21.597Z,10.90
2022-11-03T00:16:51.739Z,10.90
2022-11-03T00:19:20.217Z,10.90
2022-11-03T00:21:48.595Z,10.90
2022-11-03T00:24:16.944Z,10.90
2022-11-03T00:26:45.221Z,10.90
2022-11-03T00:29:15.536Z,10.90
2022-11-03T00:31:45.517Z,10.90
2022-11-03T00:34:15.127Z,10.90
2022-11-03T00:36:45.127Z,10.90
2022-11-03T00:39:13.966Z,10.90
2022-11-03T00:41:42.473Z,10.90
2022-11-03T00:44:13.325Z,10.90
2022-11-03T00:46:41.802Z,10.90
2022-11-03T00:49:10.058Z,11.00
2022-11-03T00:51:39.652Z,11.00
2022-11-03T00:54:08.389Z,11.00
2022-11-03T00:56:39.067Z,11.00
2022-11-03T00:59:09.306Z,11.00
2022-11-03T01:01:45.956Z,10.90
2022-11-03T01:04:34.319Z,10.90
2022-11-03T01:07:05.775Z,11.00
2022-11-03T01:09:38.490Z,10.90
2022-11-03T01:12:10.637Z,11.00
2022-11-03T01:14:43.786Z,11.00
2022-11-03T01:17:16.378Z,11.00
2022-11-03T01:19:45.204Z,10.90
2022-11-03T01:22:16.734Z,11.00
2022-11-03T01:24:45.617Z,11.00
2022-11-03T01:27:17.176Z,11.00
2022-11-03T01:29:45.662Z,10.90
2022-11-03T01:32:14.251Z,10.90
2022-11-03T01:34:42.642Z,10.90
2022-11-03T01:37:10.997Z,10.90
2022-11-03T01:39:40.604Z,11.00
2022-11-03T01:42:11.039Z,10.90
2022-11-03T01:44:43.823Z,10.90
2022-11-03T01:47:21.340Z,11.00
2022-11-03T01:49:55.378Z,10.90
2022-11-03T01:52:30.666Z,10.90
2022-11-03T01:55:05.110Z,11.00
2022-11-03T01:57:39.994Z,11.00
2022-11-03T02:00:11.496Z,10.90
2022-11-03T02:02:39.762Z,11.00
2022-11-03T02:05:09.450Z,11.00
2022-11-03T02:07:43.356Z,11.00
2022-11-03T02:10:13.231Z,10.90
2022-11-03T02:12:42.315Z,10.90
2022-11-03T02:15:14.746Z,10.90
2022-11-03T02:17:44.827Z,10.90
2022-11-03T02:20:17.879Z,10.90
2022-11-03T02:23:19.288Z,10.90
2022-11-03T02:25:49.750Z,10.90
2022-11-03T02:28:21.814Z,10.90
2022-11-03T02:31:01.278Z,10.90
2022-11-03T02:33:44.546Z,10.90
2022-11-03T02:36:20.856Z,10.90
2022-11-03T02:38:55.656Z,10.80
2022-11-03T02:41:26.290Z,10.80
2022-11-03T02:43:57.370Z,10.90
2022-11-03T02:46:27.044Z,10.80
2022-11-03T02:48:57.252Z,10.80
2022-11-03T02:51:26.075Z,10.80
2022-11-03T02:54:05.866Z,10.80
2022-11-03T02:56:40.762Z,10.80
2022-11-03T02:59:13.651Z,10.80
2022-11-03T03:01:48.354Z,10.80
2022-11-03T03:04:23.924Z,10.80
2022-11-03T03:06:58.981Z,10.80
2022-11-03T03:09:31.714Z,10.80
2022-11-03T03:12:04.278Z,10.80
2022-11-03T03:14:36.738Z,10.70
2022-11-03T03:17:10.226Z,10.80
2022-11-03T03:19:49.808Z,10.80
2022-11-03T03:22:25.791Z,10.80
2022-11-03T03:25:01.113Z,10.80
2022-11-03T03:27:34.823Z,10.80
2022-11-03T03:30:07.163Z,10.80
2022-11-03T03:32:40.518Z,10.80
2022-11-03T03:35:16.939Z,10.80
2022-11-03T03:37:48.881Z,10.80
2022-11-03T03:40:24.158Z,10.80
2022-11-03T03:42:54.663Z,10.90
2022-11-03T03:45:23.185Z,10.80
2022-11-03T03:47:56.405Z,10.80
2022-11-03T03:50:28.489Z,10.90
2022-11-03T03:52:58.626Z,10.90
2022-11-03T03:55:35.546Z,10.90
2022-11-03T03:58:06.753Z,10.90
2022-11-03T04:00:35.425Z,10.80
2022-11-03T04:03:03.649Z,10.90
2022-11-03T04:05:31.879Z,10.90
2022-11-03T04:08:00.159Z,11.00
2022-11-03T04:10:28.534Z,11.00
2022-11-03T04:13:14.242Z,11.00
2022-11-03T04:16:03.498Z,11.00
2022-11-03T04:18:49.120Z,11.10
2022-11-03T04:21:35.263Z,11.00
2022-11-03T04:24:03.547Z,11.10
2022-11-03T04:26:31.816Z,11.10
2022-11-03T04:29:01.813Z,11.10
2022-11-03T04:31:35.188Z,11.10
2022-11-03T04:34:06.299Z,11.10
2022-11-03T04:36:34.341Z,11.10
2022-11-03T04:39:02.596Z,11.10
2022-11-03T04:41:34.594Z,11.20
2022-11-03T04:44:03.085Z,11.10
2022-11-03T04:46:33.199Z,11.10
2022-11-03T04:49:03.222Z,11.20
2022-11-03T04:51:34.809Z,11.20
2022-11-03T04:54:15.300Z,11.20
2022-11-03T04:56:43.729Z,11.20
2022-11-03T04:59:14.342Z,11.30
2022-11-03T05:01:45.153Z,11.20
2022-11-03T05:04:15.932Z,11.30
2022-11-03T05:06:50.672Z,11.30
2022-11-03T05:09:24.613Z,11.20
2022-11-03T05:11:52.843Z,11.30
2022-11-03T05:14:23.954Z,11.40
2022-11-03T05:16:54.920Z,11.40
2022-11-03T05:19:26.847Z,11.50
2022-11-03T05:21:57.033Z,11.50
2022-11-03T05:24:26.906Z,11.50
2022-11-03T05:26:57.189Z,11.60
2022-11-03T05:29:27.771Z,11.60
2022-11-03T05:31:58.438Z,11.70
2022-11-03T05:34:39.876Z,11.60
2022-11-03T05:37:27.075Z,11.60
2022-11-03T05:39:59.772Z,11.60
2022-11-03T05:42:39.252Z,11.60
2022-11-03T05:45:22.700Z,11.60
2022-11-03T05:47:55.777Z,11.60
2022-11-03T05:50:27.893Z,11.70
2022-11-03T05:53:03.347Z,11.70
2022-11-03T05:55:35.807Z,11.70
2022-11-03T05:58:19.313Z,11.70
2022-11-03T06:00:50.011Z,11.70
2022-11-03T06:03:25.813Z,11.70
2022-11-03T06:05:54.760Z,11.70
2022-11-03T06:08:27.014Z,11.70
2022-11-03T06:10:58.617Z,11.70
2022-11-03T06:13:33.505Z,11.60
2022-11-03T06:16:05.946Z,11.60
2022-11-03T06:18:38.389Z,11.50
2022-11-03T06:21:12.176Z,11.50
2022-11-03T06:23:41.933Z,11.40
2022-11-03T06:26:17.525Z,11.40
2022-11-03T06:28:46.689Z,11.50
2022-11-03T06:31:23.450Z,11.50
2022-11-03T06:33:53.996Z,11.50
2022-11-03T06:36:25.383Z,11.50
2022-11-03T06:38:57.557Z,11.50
2022-11-03T06:41:32.616Z,11.50
2022-11-03T06:44:04.648Z,11.50
2022-11-03T06:46:34.241Z,11.50
2022-11-03T06:49:05.736Z,11.50
2022-11-03T06:51:41.661Z,11.50
2022-11-03T06:54:12.699Z,11.50
2022-11-03T06:56:43.781Z,11.50
2022-11-03T06:59:15.305Z,11.50
2022-11-03T07:01:43.982Z,11.40
2022-11-03T07:04:20.802Z,11.40
2022-11-03T07:06:53.308Z,11.40
2022-11-03T07:09:27.109Z,11.50
2022-11-03T07:11:59.055Z,11.50
2022-11-03T07:14:30.200Z,11.40
2022-11-03T07:17:00.798Z,11.50
2022-11-03T07:19:34.967Z,11.50
2022-11-03T07:22:06.320Z,11.50
2022-11-03T07:24:40.855Z,11.50
2022-11-03T07:27:20.192Z,11.50
2022-11-03T07:29:49.760Z,11.50
2022-11-03T07:32:21.715Z,11.50
2022-11-03T07:34:54.329Z,11.50
2022-11-03T07:37:27.385Z,11.50
2022-11-03T07:39:55.846Z,11.50
2022-11-03T07:42:26.214Z,11.50
2022-11-03T07:44:57.319Z,11.50
2022-11-03T07:47:26.487Z,11.50
2022-11-03T07:49:57.696Z,11.50
2022-11-03T07:52:28.239Z,11.50
2022-11-03T07:54:58.039Z,11.50
2022-11-03T07:57:30.594Z,11.60
2022-11-03T08:00:08.821Z,11.60
2022-11-03T08:02:50.108Z,11.60
2022-11-03T08:07:52.966Z,11.70
2022-11-03T08:10:22.504Z,11.70
2022-11-03T08:12:50.792Z,11.70
2022-11-03T08:15:19.181Z,11.80
2022-11-03T08:17:50.891Z,11.80
2022-11-03T08:20:24.936Z,11.80
2022-11-03T08:23:12.148Z,11.90
2022-11-03T08:25:41.492Z,11.90
2022-11-03T08:28:09.890Z,11.90
2022-11-03T08:30:38.213Z,12.00
2022-11-03T08:33:06.639Z,12.00
2022-11-03T08:35:36.428Z,12.00
2022-11-03T08:38:05.175Z,12.00
2022-11-03T08:40:33.606Z,12.00
2022-11-03T08:43:03.074Z,12.10
2022-11-03T08:45:31.496Z,12.10
2022-11-03T08:47:59.955Z,12.10
2022-11-03T08:50:28.187Z,12.10
2022-11-03T08:52:57.835Z,12.20
2022-11-03T08:55:27.318Z,12.20
2022-11-03T08:57:55.655Z,12.20
2022-11-03T09:00:24.094Z,12.20
2022-11-03T09:02:52.414Z,12.30
2022-11-03T09:05:20.710Z,12.30
2022-11-03T09:10:42.318Z,12.40
2022-11-03T09:13:11.335Z,12.40
2022-11-03T09:15:39.744Z,12.50
2022-11-03T09:18:08.316Z,12.50
2022-11-03T09:20:36.763Z,12.50
2022-11-03T09:23:05.103Z,12.60
2022-11-03T09:25:33.527Z,12.70
2022-11-03T09:28:03.163Z,12.70
2022-11-03T09:30:31.404Z,12.80
2022-11-03T09:32:59.723Z,12.80
2022-11-03T09:35:28.069Z,12.90
2022-11-03T09:37:56.507Z,12.90
2022-11-03T09:40:26.577Z,13.00
2022-11-03T09:42:54.962Z,13.00
2022-11-03T09:45:24.599Z,13.10
2022-11-03T09:47:53.099Z,13.10
2022-11-03T09:50:22.485Z,13.20
2022-11-03T09:52:52.039Z,13.20
2022-11-03T09:55:25.307Z,13.20
2022-11-03T09:57:55.778Z,13.20
2022-11-03T10:00:26.980Z,13.30
2022-11-03T10:02:55.534Z,13.30
2022-11-03T10:05:26.629Z,13.40
2022-11-03T10:07:59.322Z,13.40
2022-11-03T10:10:28.291Z,13.40
2022-11-03T10:12:58.707Z,13.40
2022-11-03T10:15:29.043Z,13.50
2022-11-03T10:17:58.155Z,13.50
2022-11-03T10:20:26.509Z,13.50
2022-11-03T10:22:56.194Z,13.50
2022-11-03T10:25:36.991Z,13.50
2022-11-03T10:28:18.436Z,13.60
2022-11-03T10:33:43.770Z,13.60
2022-11-03T10:36:26.671Z,13.60
2022-11-03T10:38:55.978Z,13.70
2022-11-03T10:41:26.360Z,13.60
2022-11-03T10:44:19.314Z,13.60
2022-11-03T10:47:00.579Z,13.60
2022-11-03T10:49:30.757Z,13.60
2022-11-03T10:52:20.545Z,13.60
2022-11-03T10:54:49.877Z,13.60
2022-11-03T10:57:19.213Z,13.60
2022-11-03T10:59:50.829Z,13.70
2022-11-03T11:02:23.270Z,13.70
2022-11-03T11:04:58.988Z,13.70
2022-11-03T11:07:34.036Z,13.80
2022-11-03T11:10:09.722Z,13.80
2022-11-03T11:12:38.090Z,13.90
2022-11-03T11:15:38.326Z,13.90
2022-11-03T11:18:08.651Z,13.90
2022-11-03T11:20:40.260Z,13.90
2022-11-03T11:23:49.135Z,14.00
2022-11-03T11:26:34.100Z,14.00
2022-11-03T11:29:46.954Z,14.00
2022-11-03T11:33:00.829Z,14.00
2022-11-03T11:36:28.962Z,14.00
2022-11-03T11:39:00.057Z,14.00
2022-11-03T11:42:05.526Z,14.00
2022-11-03T11:45:04.013Z,14.00
2022-11-03T11:47:50.491Z,14.00
2022-11-03T11:50:32.108Z,14.00
2022-11-03T11:53:14.151Z,14.00
2022-11-03T11:55:51.661Z,14.10
2022-11-03T11:58:29.331Z,14.10
2022-11-03T12:01:02.848Z,14.10
2022-11-03T12:03:37.654Z,14.20
2022-11-03T12:06:06.689Z,14.20
2022-11-03T12:08:35.528Z,14.20
2022-11-03T12:11:07.548Z,14.20
2022-11-03T12:13:45.013Z,14.30
2022-11-03T12:16:33.001Z,14.30
2022-11-03T12:19:49.010Z,14.40
2022-11-03T12:22:42.883Z,14.50
2022-11-03T12:25:37.389Z,14.50
2022-11-03T12:28:07.259Z,14.50
2022-11-03T12:30:40.050Z,14.50
2022-11-03T12:33:10.618Z,14.50
2022-11-03T12:35:39.143Z,14.50
2022-11-03T12:38:07.734Z,14.50
2022-11-03T12:40:35.999Z,14.40
2022-11-03T12:43:04.513Z,14.50
2022-11-03T12:45:34.359Z,14.40
2022-11-03T12:48:02.646Z,14.40
2022-11-03T12:50:30.938Z,14.40
2022-11-03T12:52:59.152Z,14.40
2022-11-03T12:58:00.722Z,14.40
2022-11-03T13:00:28.962Z,14.40
2022-11-03T13:02:58.716Z,14.40
2022-11-03T13:05:27.058Z,14.40
2022-11-03T13:07:55.369Z,14.50
2022-11-03T13:10:23.670Z,14.40
2022-11-03T13:12:51.975Z,14.40
2022-11-03T13:15:20.464Z,14.40
2022-11-03T13:20:38.604Z,14.20
2022-11-03T13:23:07.319Z,14.10
2022-11-03T13:25:35.831Z,14.00
2022-11-03T13:28:04.712Z,13.90
2022-11-03T13:30:33.752Z,13.90
2022-11-03T13:33:02.151Z,13.90
2022-11-03T13:35:30.500Z,13.80
2022-11-03T13:38:00.493Z,13.80
2022-11-03T13:40:54.873Z,13.80
2022-11-03T13:43:17.274Z,13.80
2022-11-03T13:45:45.554Z,13.90
2022-11-03T13:51:02.177Z,13.80
2022-11-03T13:56:22.304Z,13.80
2022-11-03T14:01:40.743Z,13.90
2022-11-03T14:06:57.879Z,13.90
2022-11-03T14:09:27.641Z,13.90
2022-11-03T14:12:13.750Z,13.80
2022-11-03T14:14:42.342Z,13.80
2022-11-03T14:17:10.697Z,13.80
2022-11-03T14:19:44.773Z,13.70
2022-11-03T14:22:14.555Z,13.50
2022-11-03T14:24:44.504Z,13.40
2022-11-03T14:27:13.151Z,13.30
2022-11-03T14:29:41.406Z,13.20
2022-11-03T14:32:09.673Z,13.10
2022-11-03T14:34:38.552Z,13.00
2022-11-03T14:37:08.927Z,12.90
2022-11-03T14:39:37.716Z,12.90
2022-11-03T14:42:11.095Z,12.80
2022-11-03T14:44:40.889Z,12.70
2022-11-03T14:47:11.807Z,12.60
2022-11-03T14:49:40.657Z,12.50
2022-11-03T14:52:09.515Z,12.50
2022-11-03T14:54:38.092Z,12.50
2022-11-03T14:57:07.789Z,12.40
2022-11-03T14:59:36.541Z,12.30
2022-11-03T15:02:05.841Z,12.30
2022-11-03T15:04:34.469Z,12.20
2022-11-03T15:07:02.703Z,12.20
2022-11-03T15:09:30.979Z,12.20
2022-11-03T15:11:59.282Z,12.20
2022-11-03T15:14:29.821Z,12.10
2022-11-03T15:16:58.098Z,12.10
2022-11-03T15:19:26.424Z,12.00
2022-11-03T15:21:54.654Z,12.00
2022-11-03T15:27:11.230Z,11.90
2022-11-03T15:29:40.865Z,11.90
2022-11-03T15:32:09.120Z,11.90
2022-11-03T15:34:37.500Z,11.80
2022-11-03T15:37:05.776Z,11.80
2022-11-03T15:39:34.054Z,11.80
2022-11-03T15:42:02.651Z,11.90
2022-11-03T15:44:30.913Z,11.90
2022-11-03T15:47:00.575Z,11.80
2022-11-03T15:49:28.860Z,11.80
2022-11-03T15:51:57.500Z,11.80
2022-11-03T15:54:25.833Z,11.80
2022-11-03T15:56:54.148Z,11.80
2022-11-03T15:59:22.437Z,11.80
2022-11-03T16:01:50.938Z,11.80
2022-11-03T16:04:20.709Z,11.80
2022-11-03T16:09:37.206Z,11.70
2022-11-03T16:12:05.827Z,11.70
2022-11-03T16:14:34.144Z,11.70
2022-11-03T16:17:02.375Z,11.70
2022-11-03T16:19:32.020Z,11.70
2022-11-03T16:22:00.635Z,11.70
2022-11-03T16:24:34.850Z,11.70
2022-11-03T16:27:04.108Z,11.70
2022-11-03T16:29:32.390Z,11.70
2022-11-03T16:32:00.971Z,11.70
2022-11-03T16:34:29.278Z,11.70
2022-11-03T16:36:58.918Z,11.70
2022-11-03T16:39:27.325Z,11.70
2022-11-03T16:41:55.686Z,11.70
2022-11-03T16:44:24.321Z,11.70
2022-11-03T16:46:52.658Z,11.70
2022-11-03T16:49:21.016Z,11.70
2022-11-03T16:51:49.537Z,11.70
2022-11-03T16:54:19.214Z,11.70
2022-11-03T16:56:51.921Z,11.70
2022-11-03T16:59:24.405Z,11.70
2022-11-03T17:01:53.104Z,11.70
2022-11-03T17:04:21.709Z,11.70
2022-11-03T17:06:50.009Z,11.70
2022-11-03T17:09:20.311Z,11.70
2022-11-03T17:11:48.725Z,11.70
2022-11-03T17:14:16.961Z,11.70
2022-11-03T17:16:46.765Z,11.70
2022-11-03T17:19:15.530Z,11.70
2022-11-03T17:21:43.804Z,11.70
2022-11-03T17:24:13.340Z,11.70
2022-11-03T17:26:57.483Z,11.70
2022-11-03T17:29:35.037Z,11.70
2022-11-03T17:32:05.905Z,11.70
2022-11-03T17:34:34.497Z,11.70
2022-11-03T17:37:02.832Z,11.70
2022-11-03T17:39:34.443Z,11.70
2022-11-03T17:42:17.419Z,11.70
2022-11-03T17:44:47.371Z,11.70
2022-11-03T17:47:15.974Z,11.70
2022-11-03T17:49:44.746Z,11.70
2022-11-03T17:52:17.327Z,11.70
2022-11-03T17:54:45.752Z,11.70
2022-11-03T17:57:18.582Z,11.70
2022-11-03T17:59:49.714Z,11.80
2022-11-03T18:02:19.710Z,11.80
2022-11-03T18:04:48.888Z,11.80
2022-11-03T18:07:24.343Z,11.80
2022-11-03T18:09:53.360Z,11.80
2022-11-03T18:12:44.032Z,11.80
2022-11-03T18:15:17.696Z,11.80
2022-11-03T18:17:46.819Z,11.80
2022-11-03T18:20:19.082Z,11.80
2022-11-03T18:22:47.628Z,11.80
2022-11-03T18:25:18.238Z,11.80
2022-11-03T18:27:48.447Z,11.80
2022-11-03T18:30:18.201Z,11.80
2022-11-03T18:32:47.315Z,11.80
2022-11-03T18:35:19.676Z,11.80
2022-11-03T18:37:48.299Z,11.80
2022-11-03T18:40:17.411Z,11.80
2022-11-03T18:42:47.351Z,11.80
2022-11-03T18:45:17.998Z,11.80
2022-11-03T18:47:46.266Z,11.80
2022-11-03T18:50:17.445Z,11.80
2022-11-03T18:52:51.307Z,11.80
2022-11-03T18:55:19.792Z,11.80
2022-11-03T18:57:49.579Z,11.80
2022-11-03T19:00:20.946Z,11.80
2022-11-03T19:02:50.496Z,11.80
2022-11-03T19:05:20.321Z,11.90
2022-11-03T19:07:51.936Z,11.90
2022-11-03T19:10:22.756Z,11.90
2022-11-03T19:12:52.807Z,12.00
2022-11-03T19:15:24.830Z,12.00
2022-11-03T19:17:57.675Z,12.00
2022-11-03T19:20:26.035Z,12.00
2022-11-03T19:22:54.304Z,12.00
2022-11-03T19:25:22.618Z,12.00
2022-11-03T19:27:52.292Z,12.00
2022-11-03T19:30:21.358Z,12.00
2022-11-03T19:32:53.001Z,12.00
2022-11-03T19:35:24.494Z,12.00
2022-11-03T19:38:01.385Z,11.90
2022-11-03T19:40:30.107Z,11.90
2022-11-03T19:42:59.343Z,11.90
2022-11-03T19:45:29.090Z,11.90
2022-11-03T19:50:49.217Z,11.90
2022-11-03T19:53:22.572Z,11.90
2022-11-03T19:55:51.269Z,11.90
2022-11-03T19:58:23.699Z,11.90
2022-11-03T20:00:53.235Z,11.90
2022-11-03T20:03:22.464Z,11.90
2022-11-03T20:05:55.089Z,11.90
2022-11-03T20:08:26.299Z,11.80
2022-11-03T20:10:54.663Z,11.80
2022-11-03T20:13:28.698Z,11.80
2022-11-03T20:16:00.488Z,11.80
2022-11-03T20:18:29.922Z,11.80
2022-11-03T20:20:59.116Z,11.80
2022-11-03T20:23:30.123Z,11.80
2022-11-03T20:25:58.762Z,11.80
2022-11-03T20:28:32.285Z,11.80
2022-11-03T20:31:03.764Z,11.80
2022-11-03T20:33:32.252Z,11.80
2022-11-03T20:36:01.350Z,11.80
2022-11-03T20:38:30.219Z,11.80
2022-11-03T20:41:01.292Z,11.80
2022-11-03T20:43:34.460Z,11.70
2022-11-03T20:46:03.124Z,11.70
2022-11-03T20:48:31.383Z,11.80
2022-11-03T20:50:59.615Z,11.80
2022-11-03T20:53:27.869Z,11.80
2022-11-03T20:55:56.250Z,11.80
2022-11-03T20:58:24.567Z,11.70
2022-11-03T21:00:54.365Z,11.80
2022-11-03T21:03:45.049Z,11.80
2022-11-03T21:06:17.472Z,11.80
2022-11-03T21:08:46.546Z,11.80
2022-11-03T21:11:28.367Z,11.80
2022-11-03T21:13:59.966Z,11.80
2022-11-03T21:16:49.880Z,11.80
2022-11-03T21:19:38.211Z,11.80
2022-11-03T21:25:08.225Z,11.80
2022-11-03T21:27:39.246Z,11.80
2022-11-03T21:30:16.088Z,11.80
2022-11-03T21:32:45.847Z,11.80
2022-11-03T21:35:17.746Z,11.70
2022-11-03T21:37:46.062Z,11.70
2022-11-03T21:40:14.726Z,11.70
2022-11-03T21:43:00.423Z,11.70
2022-11-03T21:45:28.990Z,11.60
2022-11-03T21:48:24.583Z,11.60
2022-11-03T21:50:53.008Z,11.60
2022-11-03T21:53:21.230Z,11.60
2022-11-03T21:55:50.375Z,11.60
2022-11-03T21:58:18.629Z,11.70
2022-11-03T22:00:47.674Z,11.60
2022-11-03T22:03:17.385Z,11.60
2022-11-03T22:05:45.703Z,11.60
2022-11-03T22:08:14.259Z,11.50
2022-11-03T22:10:42.750Z,11.40
2022-11-03T22:13:11.445Z,11.40
2022-11-03T22:15:57.485Z,11.30
2022-11-03T22:18:27.206Z,11.20
2022-11-03T22:21:12.822Z,11.20
2022-11-03T22:24:09.854Z,11.10
2022-11-03T22:26:55.583Z,11.10
2022-11-03T22:29:41.413Z,11.00
2022-11-03T22:32:15.790Z,10.90
2022-11-03T22:35:03.189Z,11.00
2022-11-03T22:40:16.488Z,10.90
2022-11-03T22:43:02.526Z,10.90
2022-11-03T22:45:48.238Z,10.90
2022-11-03T22:48:16.470Z,10.80
2022-11-03T22:50:46.339Z,10.80
2022-11-03T22:53:32.136Z,10.70
2022-11-03T22:56:02.087Z,10.70
2022-11-03T22:58:30.825Z,10.70
2022-11-03T23:01:03.861Z,10.60
2022-11-03T23:03:33.595Z,10.60
2022-11-03T23:06:06.046Z,10.50
2022-11-03T23:08:35.721Z,10.50
2022-11-03T23:11:10.548Z,10.50
2022-11-03T23:13:38.842Z,10.50
2022-11-03T23:16:17.496Z,10.40
2022-11-03T23:19:04.373Z,10.30
2022-11-03T23:21:35.425Z,10.30
2022-11-03T23:24:30.014Z,10.20
2022-11-03T23:26:59.511Z,10.20
2022-11-03T23:29:28.266Z,10.20
2022-11-03T23:31:57.459Z,10.10
2022-11-03T23:34:25.778Z,10.10
2022-11-03T23:36:55.998Z,10.00
2022-11-03T23:39:24.528Z,10.10
2022-11-03T23:41:52.787Z,10.10
2022-11-03T23:44:21.070Z,10.10
2022-11-03T23:47:06.826Z,10.10
2022-11-03T23:49:35.115Z,10.10
2022-11-03T23:52:04.798Z,10.20
2022-11-03T23:54:33.161Z,10.20
2022-11-03T23:57:18.779Z,10.20
2022-11-03T23:59:47.019Z,10.20
